Time;durP1;ratioP1;P1;durP2;ratioP2;P2;SDS_P1;SDS_P2;PMS_P1;PMS_P2;Temp;Humidity;BMP_temperature;BMP_pressure;BME280_temperature;BME280_humidity;BME280_pressure;Samples;Min_cycle;Max_cycle;Signal;HPM_P1;HPM_P2
2021/12/31 00:02:32;;;;;;;;;34.80;30.00;;;;;13.23;60.12;98729.22;6218597;28;97169;-68
2021/12/31 00:05:35;;;;;;;;;33.00;28.00;;;;;13.22;60.36;98733.81;6216365;28;97560;-68
2021/12/31 00:08:39;;;;;;;;;32.00;29.25;;;;;13.23;60.43;98738.16;6214990;28;97005;-72
2021/12/31 00:11:43;;;;;;;;;34.00;30.00;;;;;13.28;60.68;98746.38;6216912;28;96612;-68
2021/12/31 00:14:47;;;;;;;;;31.00;28.00;;;;;13.35;60.57;98748.91;6212422;28;98575;-69
2021/12/31 00:17:50;;;;;;;;;31.00;28.50;;;;;13.36;60.55;98750.56;6216922;28;97529;-70
2021/12/31 00:20:55;;;;;;;;;29.60;26.00;;;;;13.43;60.52;98756.66;6215177;28;97159;-72
2021/12/31 00:23:58;;;;;;;;;28.00;24.00;;;;;13.41;61.19;98753.38;6213014;28;96619;-68
2021/12/31 00:27:03;;;;;;;;;25.60;21.60;;;;;13.49;61.08;98746.75;6212796;28;97124;-69
2021/12/31 00:30:07;;;;;;;;;22.75;20.25;;;;;13.48;61.23;98750.50;6213227;28;98412;-68
2021/12/31 00:33:10;;;;;;;;;22.40;20.40;;;;;13.59;60.93;98757.72;6211496;28;97054;-72
2021/12/31 00:36:14;;;;;;;;;22.60;20.00;;;;;13.68;60.64;98756.28;6211889;28;98038;-68
2021/12/31 00:39:17;;;;;;;;;25.40;20.00;;;;;13.70;60.87;98754.97;6210804;28;97071;-69
2021/12/31 00:42:22;;;;;;;;;21.40;18.00;;;;;13.69;60.58;98760.63;6211853;28;98439;-72
2021/12/31 00:45:26;;;;;;;;;22.00;18.40;;;;;13.78;60.92;98765.38;6211056;28;97290;-69
2021/12/31 00:48:30;;;;;;;;;20.00;17.00;;;;;13.85;60.87;98779.63;6213834;28;96722;-68
2021/12/31 00:51:34;;;;;;;;;22.00;18.00;;;;;13.70;60.95;98743.31;6214085;28;97066;-68
2021/12/31 00:54:38;;;;;;;;;16.60;15.00;;;;;13.92;61.04;98775.94;6197857;28;99635;-68
2021/12/31 00:57:43;;;;;;;;;14.60;14.00;;;;;13.89;61.38;98764.50;6212584;28;96523;-70
2021/12/31 01:00:46;;;;;;;;;13.00;11.00;;;;;13.98;61.59;98777.63;6194612;28;98535;-69
2021/12/31 01:03:50;;;;;;;;;14.60;13.60;;;;;14.05;61.31;98762.88;6215297;28;96689;-72
2021/12/31 01:06:54;;;;;;;;;13.00;12.00;;;;;14.07;61.79;98773.47;6195952;28;97130;-72
2021/12/31 01:10:00;;;;;;;;;10.80;10.20;;;;;14.21;61.29;98780.19;6213660;28;97358;-68
2021/12/31 01:13:10;;;;;;;;;13.00;11.00;;;;;14.24;61.07;98775.09;6246035;27;96830;-68
2021/12/31 01:16:13;;;;;;;;;9.60;8.00;;;;;14.30;60.90;98776.81;6213879;28;97030;-69
2021/12/31 01:22:37;;;;;;;;;9.40;9.20;;;;;14.36;61.55;98785.88;6213404;28;96729;-71
2021/12/31 01:25:40;;;;;;;;;14.00;12.00;;;;;14.46;60.93;98785.22;6212695;28;96673;-71
2021/12/31 01:28:46;;;;;;;;;9.40;8.40;;;;;14.41;60.88;98780.53;6213611;28;96884;-71
2021/12/31 01:31:51;;;;;;;;;7.50;7.50;;;;;14.51;61.09;98791.53;6212671;28;96563;-71
2021/12/31 01:34:54;;;;;;;;;8.20;7.60;;;;;14.49;61.35;98784.72;6213897;28;97475;-68
2021/12/31 01:37:58;;;;;;;;;10.60;9.60;;;;;14.44;61.34;98790.06;6212396;28;96894;-68
2021/12/31 01:41:01;;;;;;;;;11.00;8.00;;;;;14.51;61.26;98790.72;6214029;28;96583;-68
2021/12/31 01:44:07;;;;;;;;;8.00;8.00;;;;;14.55;61.42;98786.44;6196040;28;98434;-71
2021/12/31 01:47:14;;;;;;;;;10.00;9.00;;;;;14.60;61.25;98792.75;6214823;28;97448;-68
2021/12/31 01:50:17;;;;;;;;;9.50;9.00;;;;;14.68;61.25;98799.63;6212763;28;97614;-68
2021/12/31 01:53:23;;;;;;;;;9.60;9.60;;;;;14.77;60.85;98803.56;6211179;28;97476;-68
2021/12/31 01:56:32;;;;;;;;;10.00;10.00;;;;;14.82;60.66;98802.78;6213361;28;97820;-71
2021/12/31 01:59:39;;;;;;;;;11.00;10.00;;;;;14.84;60.62;98809.63;6212144;28;98988;-68
2021/12/31 02:02:46;;;;;;;;;13.00;11.50;;;;;14.86;60.58;98798.50;6213990;28;97081;-68
2021/12/31 02:05:49;;;;;;;;;9.00;8.00;;;;;14.92;60.39;98801.03;6227255;28;98746;-68
2021/12/31 02:08:53;;;;;;;;;9.00;8.00;;;;;14.88;60.70;98802.63;6211556;28;97001;-71
2021/12/31 02:11:56;;;;;;;;;12.60;11.00;;;;;14.94;60.42;98803.50;6211038;28;96593;-68
2021/12/31 02:15:03;;;;;;;;;9.25;9.25;;;;;14.95;60.60;98802.44;6210022;28;96886;-71
2021/12/31 02:18:09;;;;;;;;;11.00;10.00;;;;;15.00;60.22;98797.88;6212462;28;97102;-70
2021/12/31 02:21:14;;;;;;;;;12.00;10.00;;;;;14.81;60.69;98785.69;6244009;27;97540;-68
2021/12/31 02:24:19;;;;;;;;;9.60;8.60;;;;;14.98;60.27;98796.50;6208650;28;96904;-69
2021/12/31 02:27:23;;;;;;;;;9.40;8.60;;;;;14.94;60.40;98790.75;6212323;28;96496;-71
2021/12/31 02:30:27;;;;;;;;;9.33;8.33;;;;;15.00;60.33;98786.22;6211789;28;97160;-71
2021/12/31 02:33:31;;;;;;;;;10.80;10.20;;;;;14.98;60.34;98796.50;6212305;28;97119;-68
2021/12/31 02:36:36;;;;;;;;;11.00;10.40;;;;;15.04;60.14;98793.59;6212764;28;96815;-71
2021/12/31 02:39:42;;;;;;;;;10.00;9.00;;;;;15.14;59.95;98803.78;6211513;28;97440;-71
2021/12/31 02:42:46;;;;;;;;;10.60;10.40;;;;;15.12;59.88;98809.44;6212015;28;96400;-68
2021/12/31 02:45:49;;;;;;;;;10.00;9.20;;;;;15.16;59.63;98805.16;6212975;28;96671;-70
2021/12/31 02:48:57;;;;;;;;;11.20;9.80;;;;;15.20;59.57;98807.38;6212510;28;98104;-68
2021/12/31 02:52:02;;;;;;;;;9.00;9.00;;;;;15.23;59.59;98807.69;6215444;28;96546;-71
2021/12/31 02:55:06;;;;;;;;;11.00;9.00;;;;;15.20;59.66;98804.66;6216206;28;97060;-71
2021/12/31 02:58:12;;;;;;;;;8.80;8.80;;;;;15.16;60.02;98805.16;6213739;28;98408;-71
2021/12/31 03:01:15;;;;;;;;;9.40;9.00;;;;;15.19;59.93;98803.84;6216660;28;97347;-68
2021/12/31 03:04:21;;;;;;;;;11.00;10.00;;;;;15.17;59.96;98809.50;6216759;28;96514;-68
2021/12/31 03:07:27;;;;;;;;;7.25;7.00;;;;;15.08;60.32;98799.34;6196898;28;96615;-68
2021/12/31 03:10:31;;;;;;;;;7.00;7.00;;;;;15.11;60.68;98787.97;6217942;28;97442;-70
2021/12/31 03:13:36;;;;;;;;;8.20;7.60;;;;;15.18;60.47;98804.91;6216422;28;97442;-68
2021/12/31 03:16:39;;;;;;;;;13.00;11.00;;;;;15.22;60.04;98800.59;6213974;28;98155;-71
2021/12/31 03:19:43;;;;;;;;;10.00;9.00;;;;;15.20;60.11;98808.16;6217003;28;96350;-68
2021/12/31 03:22:48;;;;;;;;;7.40;7.00;;;;;15.25;60.21;98815.59;6214665;28;98478;-71
2021/12/31 03:25:52;;;;;;;;;9.00;8.00;;;;;15.22;60.31;98803.31;6215750;28;97486;-68
2021/12/31 03:28:55;;;;;;;;;10.00;9.40;;;;;15.18;60.67;98808.44;6213970;28;98575;-68
2021/12/31 03:31:58;;;;;;;;;8.25;8.00;;;;;15.18;60.61;98811.16;6214201;28;99475;-71
2021/12/31 03:35:02;;;;;;;;;7.00;7.00;;;;;15.17;60.65;98812.22;6214469;28;98536;-71
2021/12/31 03:38:06;;;;;;;;;7.00;7.00;;;;;15.17;60.74;98808.69;6214219;28;96848;-69
2021/12/31 03:41:09;;;;;;;;;9.40;8.40;;;;;15.22;60.65;98814.19;6213212;28;96710;-70
2021/12/31 03:44:13;;;;;;;;;9.00;8.50;;;;;15.32;60.31;98808.88;6215302;28;96489;-70
2021/12/31 03:47:20;;;;;;;;;9.00;9.00;;;;;15.22;60.67;98813.34;6216527;28;97298;-70
2021/12/31 03:50:24;;;;;;;;;8.00;7.00;;;;;15.18;60.83;98813.88;6214896;28;97649;-71
2021/12/31 03:53:30;;;;;;;;;7.25;7.00;;;;;15.20;60.75;98807.38;6216078;28;98495;-68
2021/12/31 03:56:34;;;;;;;;;9.00;8.00;;;;;15.13;61.23;98811.09;6214961;28;98104;-70
2021/12/31 03:59:37;;;;;;;;;8.00;8.00;;;;;15.19;60.90;98817.41;6212700;28;99656;-69
2021/12/31 04:02:41;;;;;;;;;9.20;8.00;;;;;15.23;60.80;98818.53;6197039;28;96715;-68
2021/12/31 04:05:44;;;;;;;;;8.80;7.80;;;;;15.23;60.70;98813.13;6211222;28;98516;-71
2021/12/31 04:08:49;;;;;;;;;9.00;8.60;;;;;15.19;60.91;98814.69;6213883;28;97439;-71
2021/12/31 04:11:52;;;;;;;;;6.75;6.75;;;;;15.25;60.92;98812.88;6211696;28;97346;-68
2021/12/31 04:14:56;;;;;;;;;8.25;7.50;;;;;15.21;61.01;98817.97;6208110;28;98075;-68
2021/12/31 04:17:59;;;;;;;;;9.00;9.00;;;;;15.15;61.01;98816.25;6210544;28;97372;-68
2021/12/31 04:21:02;;;;;;;;;7.00;7.00;;;;;15.14;61.09;98806.50;6213157;28;96999;-70
2021/12/31 04:24:13;;;;;;;;;7.00;7.00;;;;;15.23;60.90;98823.16;6194908;28;96795;-70
2021/12/31 04:27:17;;;;;;;;;8.00;8.00;;;;;15.26;60.55;98818.03;6211312;28;96796;-68
2021/12/31 04:30:21;;;;;;;;;10.00;9.00;;;;;15.36;60.39;98830.91;6245418;27;96753;-71
2021/12/31 04:33:24;;;;;;;;;8.00;8.00;;;;;15.36;60.36;98833.63;6213217;28;96497;-68
2021/12/31 04:36:27;;;;;;;;;8.00;7.00;;;;;15.32;60.62;98835.22;6215732;28;96616;-68
2021/12/31 04:39:32;;;;;;;;;7.00;7.00;;;;;15.26;60.78;98844.38;6214774;28;97604;-68
2021/12/31 04:42:35;;;;;;;;;7.00;6.00;;;;;15.23;60.89;98843.00;6213194;28;96389;-71
2021/12/31 04:45:39;;;;;;;;;7.00;6.00;;;;;15.17;60.94;98841.28;6212832;28;97869;-70
2021/12/31 04:48:42;;;;;;;;;9.00;8.00;;;;;15.12;61.22;98839.31;6216110;28;96799;-67
2021/12/31 04:51:46;;;;;;;;;7.00;6.20;;;;;15.16;61.13;98837.72;6196747;28;98745;-68
2021/12/31 04:54:50;;;;;;;;;6.00;6.00;;;;;15.06;61.63;98825.91;6213670;28;97428;-70
2021/12/31 04:57:54;;;;;;;;;6.00;6.00;;;;;15.15;61.60;98827.94;6216438;28;97962;-67
2021/12/31 05:00:57;;;;;;;;;5.00;5.00;;;;;15.11;61.58;98824.09;6214089;28;97586;-71
2021/12/31 05:04:00;;;;;;;;;9.00;8.00;;;;;15.13;61.51;98823.84;6212894;28;96667;-70
2021/12/31 05:07:04;;;;;;;;;8.60;8.00;;;;;15.09;61.44;98823.53;6196941;28;99621;-70
2021/12/31 05:10:15;;;;;;;;;7.00;6.00;;;;;15.13;61.34;98821.13;6195315;28;98425;-68
2021/12/31 05:13:19;;;;;;;;;8.50;7.50;;;;;15.02;61.83;98830.22;6214484;28;96691;-68
2021/12/31 05:16:23;;;;;;;;;8.60;8.60;;;;;14.98;61.73;98820.94;6212056;28;98489;-67
2021/12/31 05:19:26;;;;;;;;;8.40;8.40;;;;;15.03;61.82;98823.72;6221612;28;96389;-72
2021/12/31 05:22:29;;;;;;;;;9.40;8.40;;;;;15.01;61.87;98812.28;6222402;28;96430;-68
2021/12/31 05:25:35;;;;;;;;;9.00;8.40;;;;;15.05;61.96;98814.22;6227777;28;96680;-68
2021/12/31 05:28:38;;;;;;;;;9.00;9.00;;;;;15.03;61.91;98805.53;6228527;27;97152;-67
2021/12/31 05:31:41;;;;;;;;;8.80;7.80;;;;;15.09;61.83;98820.00;6214303;28;96616;-68
2021/12/31 05:34:44;;;;;;;;;7.40;7.40;;;;;15.16;61.90;98817.91;6214563;28;97543;-71
2021/12/31 05:37:48;;;;;;;;;8.00;7.00;;;;;15.21;61.84;98828.84;6214656;28;96568;-70
2021/12/31 05:40:53;;;;;;;;;7.00;6.00;;;;;15.23;61.80;98815.81;6212690;28;97545;-71
2021/12/31 05:43:57;;;;;;;;;8.40;8.00;;;;;15.07;61.75;98790.38;6213412;28;97449;-71
2021/12/31 05:47:00;;;;;;;;;10.00;9.00;;;;;15.25;61.92;98821.00;6213692;28;97507;-68
2021/12/31 05:50:05;;;;;;;;;8.80;8.80;;;;;15.23;61.92;98818.53;6213571;28;96654;-71
2021/12/31 05:53:08;;;;;;;;;7.00;7.00;;;;;15.30;61.94;98824.59;6210449;28;97040;-72
2021/12/31 05:56:13;;;;;;;;;8.00;8.00;;;;;15.28;61.77;98831.38;6210694;28;97562;-72
2021/12/31 05:59:16;;;;;;;;;7.00;7.00;;;;;15.38;61.61;98826.06;6209034;28;97155;-71
2021/12/31 06:02:21;;;;;;;;;9.00;8.00;;;;;15.47;61.40;98832.69;6210450;28;97991;-68
2021/12/31 06:05:25;;;;;;;;;8.00;7.00;;;;;15.59;61.04;98822.50;6211162;28;98502;-73
2021/12/31 06:08:29;;;;;;;;;7.00;7.00;;;;;15.65;60.66;98829.63;6212684;28;96461;-70
2021/12/31 06:11:33;;;;;;;;;7.80;6.80;;;;;15.68;60.51;98831.03;6211474;28;97026;-68
2021/12/31 06:14:37;;;;;;;;;8.40;7.40;;;;;15.71;60.42;98842.22;6211408;28;97465;-68
2021/12/31 06:17:40;;;;;;;;;7.80;6.60;;;;;15.73;60.23;98839.25;6211702;28;97430;-71
2021/12/31 06:20:43;;;;;;;;;9.00;7.50;;;;;15.68;60.36;98841.91;6211982;28;96806;-66
2021/12/31 06:23:47;;;;;;;;;7.00;7.00;;;;;15.73;60.30;98831.09;6208979;28;97249;-68
2021/12/31 06:27:06;;;;;;;;;7.00;7.00;;;;;15.70;60.27;98837.03;6230245;27;97272;-68
2021/12/31 06:30:11;;;;;;;;;8.20;7.20;;;;;15.76;59.82;98855.03;6214559;28;97674;-69
2021/12/31 06:33:14;;;;;;;;;8.00;7.00;;;;;15.75;59.91;98853.38;6214086;28;96594;-69
2021/12/31 06:36:19;;;;;;;;;10.00;9.00;;;;;15.69;60.02;98857.94;6213106;28;96883;-69
2021/12/31 06:39:22;;;;;;;;;10.00;9.60;;;;;15.67;60.13;98859.28;6213621;28;97359;-70
2021/12/31 06:42:27;;;;;;;;;7.75;7.75;;;;;15.54;60.19;98864.03;6214831;28;97822;-68
2021/12/31 06:45:31;;;;;;;;;8.40;8.00;;;;;15.52;60.35;98863.47;6215934;28;96593;-69
2021/12/31 06:48:34;;;;;;;;;8.00;8.00;;;;;15.65;60.06;98858.72;6213367;28;96656;-70
2021/12/31 06:51:38;;;;;;;;;9.00;8.40;;;;;15.64;60.01;98855.16;6204625;28;96738;-70
2021/12/31 06:54:41;;;;;;;;;9.00;8.40;;;;;15.65;60.02;98840.50;6213590;28;99452;-67
2021/12/31 06:57:46;;;;;;;;;10.40;10.00;;;;;15.52;60.23;98854.50;6207178;28;96540;-67
2021/12/31 07:00:49;;;;;;;;;9.00;8.00;;;;;15.50;60.51;98848.47;6248458;27;97326;-68
2021/12/31 07:03:53;;;;;;;;;9.00;9.00;;;;;15.49;60.52;98844.13;6213488;28;97486;-67
2021/12/31 07:06:56;;;;;;;;;7.00;7.00;;;;;15.36;60.93;98852.63;6210388;28;97847;-67
2021/12/31 07:10:06;;;;;;;;;9.00;7.75;;;;;15.36;61.08;98867.03;6211804;28;96518;-68
2021/12/31 07:13:11;;;;;;;;;6.20;6.00;;;;;15.39;61.26;98868.44;6214967;28;96647;-69
2021/12/31 07:16:15;;;;;;;;;6.50;6.25;;;;;15.31;61.56;98864.25;6227182;28;97347;-68
2021/12/31 07:19:18;;;;;;;;;6.00;5.75;;;;;15.39;61.27;98863.84;6208506;28;96621;-70
2021/12/31 07:22:21;;;;;;;;;6.00;5.80;;;;;15.32;61.76;98874.06;6210638;28;97449;-70
2021/12/31 07:25:25;;;;;;;;;4.40;4.00;;;;;15.35;61.83;98875.44;6206964;28;97620;-68
2021/12/31 07:28:30;;;;;;;;;8.67;7.67;;;;;15.46;61.56;98867.16;6224863;28;97537;-70
2021/12/31 07:31:33;;;;;;;;;6.00;6.00;;;;;15.49;61.43;98877.53;6211543;28;97101;-70
2021/12/31 07:34:36;;;;;;;;;6.50;6.00;;;;;15.49;61.40;98884.88;6208031;28;97835;-65
2021/12/31 07:37:40;;;;;;;;;6.40;6.00;;;;;15.50;61.35;98875.63;6190202;28;98524;-66
2021/12/31 07:40:43;;;;;;;;;7.50;7.00;;;;;15.51;61.54;98878.13;6213502;28;97516;-68
2021/12/31 07:43:48;;;;;;;;;6.00;6.00;;;;;15.52;61.63;98881.66;6213384;28;98415;-68
2021/12/31 07:46:51;;;;;;;;;7.00;6.00;;;;;15.49;61.46;98882.94;6225573;28;97384;-68
2021/12/31 07:49:54;;;;;;;;;6.00;6.00;;;;;15.55;61.56;98873.81;6214245;28;97470;-68
2021/12/31 07:52:58;;;;;;;;;8.00;6.20;;;;;15.64;61.34;98879.63;6213958;28;97311;-66
2021/12/31 07:56:01;;;;;;;;;5.60;5.00;;;;;15.70;61.29;98878.63;6209038;28;97430;-65
2021/12/31 07:59:06;;;;;;;;;7.00;6.60;;;;;15.66;61.37;98890.25;6208440;28;97690;-67
2021/12/31 08:02:09;;;;;;;;;6.00;6.00;;;;;15.75;61.16;98886.00;6205692;28;99622;-66
2021/12/31 08:05:13;;;;;;;;;5.00;4.40;;;;;15.84;60.84;98890.72;6213155;28;97097;-65
2021/12/31 08:08:16;;;;;;;;;6.00;6.00;;;;;15.70;60.78;98873.19;6210036;28;99452;-66
2021/12/31 08:11:20;;;;;;;;;6.00;6.00;;;;;15.72;60.61;98867.50;6212314;28;96460;-67
2021/12/31 08:14:25;;;;;;;;;6.50;6.50;;;;;16.02;60.14;98887.69;6209258;28;97226;-66
2021/12/31 08:17:29;;;;;;;;;6.00;5.60;;;;;16.15;59.90;98900.03;6211936;28;97449;-66
2021/12/31 08:20:35;;;;;;;;;6.00;6.00;;;;;16.10;59.92;98891.00;6210229;28;96655;-68
2021/12/31 08:23:38;;;;;;;;;6.00;6.00;;;;;16.17;59.66;98906.03;6212404;28;96980;-64
2021/12/31 08:26:41;;;;;;;;;5.00;5.00;;;;;16.03;59.87;98902.06;6228724;28;97442;-69
2021/12/31 08:29:46;;;;;;;;;4.20;4.20;;;;;15.98;60.13;98911.00;6194014;28;98982;-65
2021/12/31 08:32:49;;;;;;;;;6.40;6.00;;;;;16.12;59.90;98911.44;6209838;28;97659;-66
2021/12/31 08:35:53;;;;;;;;;4.33;3.33;;;;;15.97;59.95;98903.94;6210477;28;97524;-66
2021/12/31 08:38:56;;;;;;;;;4.20;4.00;;;;;16.08;60.06;98918.44;6193553;28;96506;-66
2021/12/31 08:42:01;;;;;;;;;5.40;5.40;;;;;16.14;60.07;98924.75;6206745;28;97769;-64
2021/12/31 08:45:07;;;;;;;;;5.25;5.25;;;;;16.01;60.09;98924.09;6209431;28;99577;-68
2021/12/31 08:48:11;;;;;;;;;5.60;5.00;;;;;16.09;60.19;98917.38;6210377;28;97222;-66
2021/12/31 08:51:14;;;;;;;;;5.50;5.50;;;;;16.15;60.20;98923.69;6209565;28;100177;-67
2021/12/31 08:54:17;;;;;;;;;8.00;7.00;;;;;16.13;60.18;98926.66;6212035;28;96858;-67
2021/12/31 08:57:20;;;;;;;;;6.50;6.50;;;;;16.13;60.46;98921.22;6211824;28;96438;-69
2021/12/31 09:00:25;;;;;;;;;7.00;6.20;;;;;16.17;60.43;98930.53;6212003;28;96791;-69
2021/12/31 09:03:28;;;;;;;;;8.60;7.60;;;;;16.13;60.49;98931.25;6209268;28;97317;-69
2021/12/31 09:06:32;;;;;;;;;7.00;7.00;;;;;16.12;60.60;98933.19;6211978;28;97152;-69
2021/12/31 09:09:35;;;;;;;;;7.00;6.00;;;;;16.10;60.67;98939.94;6211258;28;97631;-70
2021/12/31 09:12:38;;;;;;;;;7.00;7.00;;;;;16.02;61.07;98936.63;6209939;28;99794;-68
2021/12/31 09:15:44;;;;;;;;;6.00;6.00;;;;;15.97;61.08;98941.19;6210377;28;98067;-68
2021/12/31 09:18:47;;;;;;;;;5.75;5.75;;;;;16.08;60.64;98937.47;6208489;28;97602;-66
2021/12/31 09:21:51;;;;;;;;;7.00;7.00;;;;;16.07;60.57;98937.75;6223016;28;97265;-66
2021/12/31 09:24:54;;;;;;;;;6.60;6.00;;;;;16.15;60.46;98937.28;6195060;28;96779;-64
2021/12/31 09:27:58;;;;;;;;;7.75;7.00;;;;;16.16;60.32;98931.59;6209945;28;97680;-65
2021/12/31 09:31:05;;;;;;;;;6.50;6.50;;;;;16.16;60.36;98923.44;6209838;28;96889;-68
2021/12/31 09:34:08;;;;;;;;;7.40;7.00;;;;;16.22;60.35;98929.75;6210940;28;97420;-67
2021/12/31 09:37:12;;;;;;;;;8.00;7.00;;;;;16.24;60.14;98938.44;6201433;28;98542;-64
2021/12/31 09:40:18;;;;;;;;;7.00;7.00;;;;;16.26;59.94;98937.13;6201816;28;97516;-67
2021/12/31 09:43:22;;;;;;;;;8.00;7.40;;;;;16.27;59.79;98936.03;6210920;28;97590;-66
2021/12/31 09:46:26;;;;;;;;;8.00;8.00;;;;;16.43;59.40;98939.72;6209468;28;96638;-65
2021/12/31 09:49:30;;;;;;;;;7.00;7.00;;;;;16.31;59.44;98936.38;6207696;28;97309;-67
2021/12/31 09:52:35;;;;;;;;;8.60;7.00;;;;;16.28;59.53;98934.97;6209502;28;96739;-67
2021/12/31 09:55:47;;;;;;;;;10.00;9.40;;;;;16.43;59.05;98937.00;6209826;28;97155;-66
2021/12/31 09:58:50;;;;;;;;;8.40;7.00;;;;;16.49;58.93;98935.97;6209146;28;100722;-67
2021/12/31 10:01:56;;;;;;;;;7.60;7.60;;;;;16.51;58.77;98931.13;6210592;28;97097;-67
2021/12/31 10:05:01;;;;;;;;;9.40;8.00;;;;;16.48;58.68;98927.00;6194081;28;98294;-68
2021/12/31 10:08:14;;;;;;;;;8.00;8.00;;;;;16.45;58.72;98919.34;6211558;28;96507;-66
2021/12/31 10:11:19;;;;;;;;;8.00;7.00;;;;;16.49;58.44;98930.53;6209887;28;96741;-65
2021/12/31 10:14:34;;;;;;;;;9.00;9.00;;;;;16.50;58.27;98917.75;6211041;28;96713;-65
2021/12/31 10:17:39;;;;;;;;;8.00;7.00;;;;;16.53;58.21;98925.38;6210036;28;97025;-68
2021/12/31 10:20:49;;;;;;;;;8.40;8.00;;;;;16.52;58.15;98930.00;6209169;28;97394;-69
2021/12/31 10:23:53;;;;;;;;;9.00;8.00;;;;;16.47;58.20;98925.34;6209433;28;97240;-68
2021/12/31 10:26:58;;;;;;;;;7.40;7.00;;;;;16.49;58.06;98919.66;6187147;28;97429;-69
2021/12/31 10:30:04;;;;;;;;;8.40;7.60;;;;;16.58;57.79;98925.44;6188971;28;97815;-67
2021/12/31 10:33:10;;;;;;;;;10.00;9.40;;;;;16.62;57.73;98923.84;6196765;28;97658;-70
2021/12/31 10:36:34;;;;;;;;;9.75;8.25;;;;;16.58;57.67;98917.25;6194503;28;97459;-69
2021/12/31 10:39:39;;;;;;;;;11.00;10.00;;;;;16.60;57.44;98912.44;6202072;28;97379;-67
2021/12/31 10:42:42;;;;;;;;;11.00;9.60;;;;;16.62;57.45;98915.69;6200166;28;97559;-70
2021/12/31 10:46:00;;;;;;;;;9.00;9.00;;;;;16.67;57.33;98915.72;6204040;28;96876;-67
2021/12/31 10:49:11;;;;;;;;;8.00;7.75;;;;;16.59;57.21;98910.78;6202808;28;96608;-69
2021/12/31 10:52:23;;;;;;;;;9.50;9.50;;;;;16.67;57.16;98902.13;6199930;28;97601;-67
2021/12/31 10:55:29;;;;;;;;;10.40;8.00;;;;;16.65;56.99;98891.53;6209927;28;100202;-68
2021/12/31 10:58:33;;;;;;;;;8.00;8.00;;;;;16.82;56.82;98891.34;6197528;28;97483;-71
2021/12/31 11:01:39;;;;;;;;;9.00;8.00;;;;;16.94;56.46;98886.53;6191526;28;97492;-67
2021/12/31 11:04:43;;;;;;;;;9.20;8.80;;;;;16.98;55.93;98892.28;6196914;28;97447;-67
2021/12/31 11:07:48;;;;;;;;;9.00;9.00;;;;;17.07;55.80;98888.78;6206459;28;96830;-68
2021/12/31 11:11:05;;;;;;;;;9.25;9.00;;;;;17.19;55.70;98886.69;6196015;28;97196;-69
2021/12/31 11:14:09;;;;;;;;;11.00;9.25;;;;;17.34;55.13;98888.69;6197451;28;96787;-66
2021/12/31 11:17:12;;;;;;;;;8.75;7.00;;;;;17.54;54.93;98887.94;6191690;28;98057;-66
2021/12/31 11:20:21;;;;;;;;;10.00;9.00;;;;;17.58;54.25;98878.13;6231196;27;97304;-68
2021/12/31 11:23:25;;;;;;;;;9.60;9.00;;;;;17.68;54.06;98872.75;6209088;28;97478;-68
2021/12/31 11:26:29;;;;;;;;;7.00;7.00;;;;;17.78;53.56;98875.50;6194457;28;97056;-66
2021/12/31 11:29:37;;;;;;;;;8.00;7.20;;;;;17.77;53.68;98862.97;6193274;28;97021;-67
2021/12/31 11:32:55;;;;;;;;;10.00;9.00;;;;;17.90;53.27;98862.44;6203020;28;97076;-66
2021/12/31 11:36:04;;;;;;;;;10.00;8.75;;;;;17.96;53.43;98852.34;6211620;28;97496;-69
2021/12/31 11:39:14;;;;;;;;;8.60;8.00;;;;;18.00;53.42;98851.53;6224495;28;97116;-65
2021/12/31 11:42:25;;;;;;;;;7.20;7.20;;;;;18.37;52.55;98848.59;6211340;28;96990;-70
2021/12/31 11:45:29;;;;;;;;;8.00;7.00;;;;;18.59;51.72;98837.41;6214670;28;96684;-68
2021/12/31 11:48:52;;;;;;;;;8.00;6.00;;;;;18.89;51.06;98840.09;6211691;28;98014;-68
2021/12/31 11:52:06;;;;;;;;;8.00;7.00;;;;;19.02;50.33;98839.50;6194970;28;96999;-65
2021/12/31 11:55:22;;;;;;;;;8.00;6.80;;;;;19.34;50.26;98850.06;6201922;28;97896;-67
2021/12/31 11:58:40;;;;;;;;;6.00;6.00;;;;;19.87;48.61;98837.50;6228437;27;97442;-67
2021/12/31 12:01:47;;;;;;;;;7.40;6.40;;;;;20.10;48.15;98841.44;6216695;28;97470;-68
2021/12/31 12:05:20;;;;;;;;;7.00;7.00;;;;;20.01;47.71;98837.69;6188428;28;96474;-68
2021/12/31 12:08:27;;;;;;;;;8.00;7.00;;;;;20.13;47.20;98838.16;6179792;28;97545;-68
2021/12/31 12:12:01;;;;;;;;;11.00;9.00;;;;;20.29;47.09;98816.94;6210588;28;96402;-67
2021/12/31 12:15:24;;;;;;;;;7.00;6.40;;;;;20.35;46.75;98812.28;6210728;28;97419;-69
2021/12/31 12:18:55;;;;;;;;;7.00;7.00;;;;;20.37;46.79;98810.91;6212276;28;97412;-68
2021/12/31 12:21:59;;;;;;;;;7.00;6.00;;;;;20.28;46.60;98799.69;6207910;28;96533;-68
2021/12/31 12:25:07;;;;;;;;;8.60;7.00;;;;;20.29;46.21;98800.50;6212587;28;97026;-68
2021/12/31 12:28:12;;;;;;;;;9.00;8.00;;;;;20.76;45.62;98797.09;6210445;28;96926;-67
2021/12/31 12:31:17;;;;;;;;;8.00;8.00;;;;;20.64;45.61;98811.19;6206305;28;96717;-68
2021/12/31 12:34:28;;;;;;;;;9.00;8.60;;;;;20.47;45.70;98810.81;6211660;28;96594;-68
2021/12/31 12:37:32;;;;;;;;;9.20;9.00;;;;;20.24;46.37;98808.75;6192721;28;98363;-69
2021/12/31 12:40:43;;;;;;;;;9.00;7.80;;;;;20.07;46.72;98809.19;6211065;28;96937;-67
2021/12/31 12:43:48;;;;;;;;;11.40;10.00;;;;;19.72;46.79;98810.25;6209106;28;97105;-66
2021/12/31 12:46:54;;;;;;;;;10.00;9.00;;;;;19.50;47.50;98814.47;6204070;28;98354;-65
2021/12/31 12:49:58;;;;;;;;;9.40;8.40;;;;;19.30;48.03;98812.63;6204553;28;96780;-65
2021/12/31 12:53:02;;;;;;;;;11.00;9.50;;;;;19.11;48.61;98812.41;6209438;28;96624;-66
2021/12/31 12:56:12;;;;;;;;;11.00;8.75;;;;;18.98;49.11;98811.09;6212690;28;97173;-66
2021/12/31 12:59:20;;;;;;;;;8.00;7.00;;;;;18.78;49.27;98802.13;6212287;28;96574;-66
2021/12/31 13:02:37;;;;;;;;;8.00;8.00;;;;;18.70;49.35;98802.72;6212206;28;96779;-66
2021/12/31 13:05:40;;;;;;;;;8.00;8.00;;;;;18.49;49.54;98807.34;6212126;28;96647;-65
2021/12/31 13:08:43;;;;;;;;;8.00;8.00;;;;;18.43;49.82;98794.78;6210965;28;96856;-67
2021/12/31 13:11:51;;;;;;;;;10.00;9.00;;;;;18.32;50.39;98793.19;6212009;28;96604;-66
2021/12/31 13:14:58;;;;;;;;;10.00;9.00;;;;;18.33;50.22;98787.44;6211362;28;96477;-66
2021/12/31 13:18:04;;;;;;;;;10.25;10.00;;;;;18.19;50.44;98775.44;6211201;28;96764;-66
2021/12/31 13:21:09;;;;;;;;;9.00;8.40;;;;;18.16;50.55;98792.38;6206399;28;98020;-66
2021/12/31 13:24:20;;;;;;;;;12.00;10.60;;;;;18.10;50.76;98790.72;6210691;28;97629;-66
2021/12/31 13:27:25;;;;;;;;;11.00;10.00;;;;;18.06;50.74;98790.44;6208226;28;97507;-66
2021/12/31 13:30:28;;;;;;;;;12.00;11.40;;;;;18.02;50.98;98800.28;6210670;28;97221;-66
2021/12/31 13:33:33;;;;;;;;;12.60;12.00;;;;;18.06;51.06;98787.72;6207593;28;99571;-70
2021/12/31 13:36:45;;;;;;;;;11.00;10.00;;;;;17.94;51.04;98787.16;6225708;28;97402;-66
2021/12/31 13:39:49;;;;;;;;;13.00;12.00;;;;;17.94;51.10;98789.06;6211859;28;96557;-68
2021/12/31 13:43:02;;;;;;;;;12.00;11.60;;;;;17.83;51.25;98796.44;6241156;27;96935;-67
2021/12/31 13:46:12;;;;;;;;;12.00;11.00;;;;;17.90;51.33;98796.16;6209743;28;96906;-64
2021/12/31 13:49:19;;;;;;;;;10.00;9.25;;;;;17.85;51.34;98791.53;6206359;28;98367;-65
2021/12/31 13:52:24;;;;;;;;;11.00;10.25;;;;;17.84;51.44;98791.81;6208347;28;97318;-67
2021/12/31 13:55:30;;;;;;;;;12.00;12.00;;;;;17.86;51.40;98795.88;6209149;28;97624;-69
2021/12/31 13:58:39;;;;;;;;;13.00;11.00;;;;;17.92;51.28;98785.81;6226034;28;98172;-65
2021/12/31 14:02:11;;;;;;;;;12.60;11.00;;;;;17.82;51.37;98788.53;6207840;28;97735;-66
2021/12/31 14:05:16;;;;;;;;;12.00;9.20;;;;;17.83;51.31;98793.72;6207952;28;96488;-68
2021/12/31 14:08:41;;;;;;;;;13.60;12.00;;;;;17.79;51.40;98803.50;6210305;28;97453;-68
2021/12/31 14:11:46;;;;;;;;;13.00;13.00;;;;;17.77;51.46;98805.69;6188721;28;96728;-69
2021/12/31 14:15:10;;;;;;;;;13.00;11.00;;;;;17.72;51.46;98808.41;6208463;28;97429;-69
2021/12/31 14:18:14;;;;;;;;;14.80;13.00;;;;;17.66;51.43;98804.84;6209569;28;97565;-66
2021/12/31 14:21:18;;;;;;;;;13.00;13.00;;;;;17.75;51.35;98803.22;6210104;28;97001;-68
2021/12/31 14:24:21;;;;;;;;;12.00;11.00;;;;;17.70;51.38;98805.94;6209314;28;96695;-68
2021/12/31 14:27:25;;;;;;;;;14.00;13.00;;;;;17.62;51.45;98798.31;6209082;28;96642;-69
2021/12/31 14:30:31;;;;;;;;;11.60;11.40;;;;;17.56;51.48;98796.63;6210919;28;97184;-70
2021/12/31 14:33:34;;;;;;;;;15.00;13.40;;;;;17.52;51.67;98802.88;6205535;28;98582;-68